This is the latest recevied weather packets stored in our database for station/object AC0MR. If no packets are shown the sender has not sent any weather packets the latest 10 day(s).
| Time | Temp. | Humidity | Pressure | Rain* | Wind** | Luminosity | Snow |
|---|---|---|---|---|---|---|---|
| 1777433718 | 11.67° C | 60% | 1014.6 hPa | 0 mm | - | 0 W/m² | - |
| 1777433118 | 11.67° C | 62% | 1014.7 hPa | 0 mm | - | 0 W/m² | - |
| 1777432519 | 11.67° C | 62% | 1014.6 hPa | 0 mm | - | 0 W/m² | - |
| 1777431918 | 11.67° C | 61% | 1014.8 hPa | 0 mm | - | 0 W/m² | - |
| 1777431318 | 11.67° C | 60% | 1014.9 hPa | 0 mm | - | 0 W/m² | - |
| 1777430718 | 12.22° C | 59% | 1015.1 hPa | 0 mm | - | 0 W/m² | - |
| 1777430118 | 12.22° C | 59% | 1015 hPa | 0 mm | - | 0 W/m² | - |
| 1777429518 | 12.22° C | 58% | 1015 hPa | 0 mm | - | 0 W/m² | - |
| 1777428918 | 12.22° C | 58% | 1014.8 hPa | 0 mm | - | 0 W/m² | - |
| 1777428318 | 12.22° C | 59% | 1014.7 hPa | 0 mm | - | 0 W/m² | - |
| 1777427718 | 12.22° C | 59% | 1014.6 hPa | 0 mm | - | 0 W/m² | - |
| 1777427118 | 12.78° C | 58% | 1014.8 hPa | 0 mm | - | 0 W/m² | - |
| 1777426518 | 12.78° C | 56% | 1014.8 hPa | 0 mm | - | 0 W/m² | - |
| 1777425918 | 12.78° C | 54% | 1014.7 hPa | 0 mm | - | 0 W/m² | - |
| 1777425318 | 12.78° C | 53% | 1014.5 hPa | 0 mm | - | 0 W/m² | - |
| 1777424718 | 12.78° C | 53% | 1014.5 hPa | 0 mm | - | 0 W/m² | - |
| 1777424118 | 13.33° C | 52% | 1014.4 hPa | 0 mm | - | 1 W/m² | - |
| 1777423518 | 13.33° C | 53% | 1014.6 hPa | 0 mm | - | 5 W/m² | - |
| 1777422918 | 13.33° C | 53% | 1014.6 hPa | 0 mm | - | 8 W/m² | - |
| 1777422318 | 13.33° C | 57% | 1014.6 hPa | 0 mm | - | 20 W/m² | - |
| 1777421718 | 13.89° C | 56% | 1014.5 hPa | 0 mm | - | 16 W/m² | - |
| 1777421118 | 13.89° C | 59% | 1014.5 hPa | 0 mm | - | 23 W/m² | - |
| 1777420518 | 13.89° C | 57% | 1014.3 hPa | 0 mm | - | 19 W/m² | - |
| 1777419918 | 14.44° C | 55% | 1014.2 hPa | 0 mm | - | 28 W/m² | - |
| 1777419318 | 14.44° C | 54% | 1014.2 hPa | 0 mm | - | 28 W/m² | - |
* Rain latest hour (hover to see other rain measurements)
** Current wind speed in m/s (hover to see current wind gust speed)